Time;durP1;ratioP1;P1;durP2;ratioP2;P2;SDS_P1;SDS_P2;PMS_P1;PMS_P2;Temp;Humidity;BMP_temperature;BMP_pressure;BME280_temperature;BME280_humidity;BME280_pressure;Samples;Min_cycle;Max_cycle;Signal;HPM_P1;HPM_P2
2021/09/29 00:02:21;;;;;;;;;0.00;0.00;;;;;17.21;51.17;101343.47;6277274;22;45515;-81
2021/09/29 00:04:46;;;;;;;;;1.00;1.00;;;;;17.13;51.58;101322.38;6251327;22;45629;-82
2021/09/29 00:07:11;;;;;;;;;0.00;0.00;;;;;17.21;51.39;101327.50;6277690;22;45412;-81
2021/09/29 00:09:37;;;;;;;;;2.00;1.00;;;;;17.11;51.52;101316.22;6278598;22;46366;-81
2021/09/29 00:12:03;;;;;;;;;0.00;0.00;;;;;17.10;51.53;101325.06;6251860;22;45650;-81
2021/09/29 00:14:28;;;;;;;;;1.00;1.00;;;;;17.12;51.76;101328.59;6279041;22;45192;-82
2021/09/29 00:16:54;;;;;;;;;1.00;1.00;;;;;17.11;51.58;101328.63;6251979;22;45355;-82
2021/09/29 00:19:20;;;;;;;;;1.00;1.00;;;;;17.17;51.71;101331.16;6250841;22;46722;-81
2021/09/29 00:21:45;;;;;;;;;0.00;0.00;;;;;17.09;52.05;101331.31;6251891;22;45405;-81
2021/09/29 00:24:11;;;;;;;;;1.00;1.00;;;;;17.15;51.67;101338.28;6250850;22;45403;-81
2021/09/29 00:26:36;;;;;;;;;1.00;1.00;;;;;17.02;51.89;101323.50;6278211;22;45497;-81
2021/09/29 00:29:02;;;;;;;;;0.00;0.00;;;;;17.01;52.76;101319.09;6278774;22;46004;-82
2021/09/29 00:31:35;;;;;;;;;2.33;1.00;;;;;17.03;52.39;101330.59;6278889;22;45284;-82
2021/09/29 00:34:22;;;;;;;;;0.00;0.00;;;;;17.09;52.39;101341.97;6277196;22;45429;-81
2021/09/29 00:36:47;;;;;;;;;1.33;1.33;;;;;17.02;52.55;101335.00;6277872;22;45532;-80
2021/09/29 00:39:13;;;;;;;;;1.00;1.00;;;;;17.00;52.58;101317.31;6279740;22;45973;-81
2021/09/29 00:41:40;;;;;;;;;1.67;1.67;;;;;17.05;53.16;101337.59;6278072;22;45342;-82
2021/09/29 00:44:06;;;;;;;;;1.33;1.33;;;;;16.86;53.15;101313.16;6280874;22;45229;-82
2021/09/29 00:46:33;;;;;;;;;0.00;0.00;;;;;16.92;52.92;101306.84;6251604;22;45408;-82
2021/09/29 00:48:59;;;;;;;;;1.00;1.00;;;;;16.94;53.34;101315.66;6281088;22;45211;-81
2021/09/29 00:51:25;;;;;;;;;2.00;0.00;;;;;16.95;53.39;101313.00;6251324;22;45289;-82
2021/09/29 00:53:52;;;;;;;;;3.00;3.00;;;;;16.88;53.30;101307.81;6253490;22;45381;-82
2021/09/29 00:56:21;;;;;;;;;2.00;1.33;;;;;16.91;54.13;101305.09;6250233;22;45899;-82
2021/09/29 00:58:47;;;;;;;;;2.00;1.00;;;;;16.82;53.75;101302.66;6251148;22;45578;-81
2021/09/29 01:01:13;;;;;;;;;1.67;1.33;;;;;16.84;54.17;101295.50;6251063;22;45525;-82
2021/09/29 01:03:40;;;;;;;;;0.67;0.67;;;;;16.81;53.96;101291.09;6251789;22;45183;-81
2021/09/29 01:06:13;;;;;;;;;0.00;0.00;;;;;16.69;53.63;101281.56;6278036;22;45246;-82
2021/09/29 01:08:43;;;;;;;;;1.00;1.00;;;;;16.74;54.13;101290.34;6250746;22;47843;-82
2021/09/29 01:11:19;;;;;;;;;1.67;0.67;;;;;16.80;54.46;101307.97;6277224;22;45353;-82
2021/09/29 01:14:01;;;;;;;;;2.00;2.00;;;;;16.65;54.53;101286.97;6279480;22;45149;-82
2021/09/29 01:16:30;;;;;;;;;2.67;1.00;;;;;16.76;54.64;101301.81;6251309;22;45209;-81
2021/09/29 01:18:58;;;;;;;;;0.00;0.00;;;;;16.71;54.98;101295.72;6251274;22;47825;-80
2021/09/29 01:21:31;;;;;;;;;1.00;0.33;;;;;16.61;54.46;101285.31;6277887;22;46252;-82
2021/09/29 01:24:09;;;;;;;;;2.00;2.00;;;;;16.77;55.10;101305.38;6251567;22;45232;-82
2021/09/29 01:26:38;;;;;;;;;1.33;1.33;;;;;16.69;55.23;101294.88;6252044;22;45401;-82
2021/09/29 01:29:08;;;;;;;;;1.00;0.00;;;;;16.78;55.90;101303.59;6251446;22;47971;-82
2021/09/29 01:31:34;;;;;;;;;0.00;0.00;;;;;16.73;56.30;101288.59;6252958;22;45213;-82
2021/09/29 01:34:02;;;;;;;;;1.25;1.00;;;;;16.74;56.30;101294.78;6251694;22;45357;-82
2021/09/29 01:36:28;;;;;;;;;2.00;1.00;;;;;16.63;56.26;101270.22;6280636;22;45525;-82
2021/09/29 01:39:00;;;;;;;;;0.00;0.00;;;;;16.51;56.47;101256.22;6279472;22;45350;-81
2021/09/29 01:41:29;;;;;;;;;2.00;2.00;;;;;16.54;55.98;101272.16;6254125;22;45436;-82
2021/09/29 01:43:55;;;;;;;;;3.33;1.00;;;;;16.53;56.83;101281.00;6253080;22;45423;-82
2021/09/29 01:46:23;;;;;;;;;0.33;0.33;;;;;16.49;57.38;101281.09;6254344;22;45489;-81
2021/09/29 01:49:26;;;;;;;;;0.50;0.00;;;;;16.51;57.82;101280.16;6281324;22;46553;-82
2021/09/29 01:51:52;;;;;;;;;1.25;1.25;;;;;16.43;57.55;101260.81;6282791;22;45226;-81
2021/09/29 01:54:23;;;;;;;;;1.00;1.00;;;;;16.47;57.62;101278.47;6279686;22;45430;-82
2021/09/29 01:56:50;;;;;;;;;2.75;0.75;;;;;16.31;58.26;101261.94;6279897;22;45538;-82
2021/09/29 01:59:16;;;;;;;;;0.25;0.25;;;;;16.31;57.74;101264.59;6279455;22;46015;-82
2021/09/29 02:01:44;;;;;;;;;2.00;0.75;;;;;16.27;58.15;101248.75;6252612;22;45538;-82
2021/09/29 02:04:12;;;;;;;;;2.00;2.00;;;;;16.37;58.54;101268.06;6280248;22;45423;-81
2021/09/29 02:06:54;;;;;;;;;2.00;0.33;;;;;16.40;58.55;101283.94;6251809;22;45267;-81
2021/09/29 02:09:21;;;;;;;;;1.00;1.00;;;;;16.23;58.37;101255.03;6251871;22;47217;-82
2021/09/29 02:11:48;;;;;;;;;1.33;1.00;;;;;16.36;58.90;101269.84;6251091;22;45435;-83
2021/09/29 02:14:15;;;;;;;;;1.00;1.00;;;;;16.36;59.42;101271.59;6280033;22;45373;-82
2021/09/29 02:16:43;;;;;;;;;2.00;1.25;;;;;16.36;59.57;101272.50;6251563;22;45177;-81
2021/09/29 02:19:08;;;;;;;;;1.00;1.00;;;;;16.18;59.52;101236.53;6278169;22;47057;-82
2021/09/29 02:21:34;;;;;;;;;2.00;1.00;;;;;16.22;59.58;101253.28;6279291;22;45152;-82
2021/09/29 02:23:59;;;;;;;;;1.00;1.00;;;;;16.28;59.88;101263.81;6280282;22;45422;-81
2021/09/29 02:26:25;;;;;;;;;0.33;0.33;;;;;16.17;59.91;101252.47;6251296;22;45452;-81
2021/09/29 02:28:51;;;;;;;;;2.50;1.00;;;;;16.26;59.89;101261.16;6280462;22;45370;-81
2021/09/29 02:31:16;;;;;;;;;0.67;0.00;;;;;16.20;59.67;101258.63;6280658;22;45410;-81
2021/09/29 02:33:43;;;;;;;;;1.33;1.33;;;;;16.34;59.96;101276.09;6253518;22;45403;-81
2021/09/29 02:36:08;;;;;;;;;1.00;0.00;;;;;16.19;60.47;101256.00;6257277;22;45565;-81
2021/09/29 02:38:34;;;;;;;;;0.00;0.00;;;;;16.31;60.72;101279.69;6256331;22;47185;-82
2021/09/29 02:41:00;;;;;;;;;0.67;0.67;;;;;16.27;61.46;101272.66;6280294;22;45208;-82
2021/09/29 02:43:25;;;;;;;;;0.33;0.33;;;;;16.28;60.75;101271.78;6279670;22;45138;-82
2021/09/29 02:45:51;;;;;;;;;1.00;1.00;;;;;16.16;60.85;101251.59;6280629;22;45482;-82
2021/09/29 02:48:16;;;;;;;;;1.00;1.00;;;;;16.23;61.64;101266.53;6252124;22;47196;-82
2021/09/29 02:50:42;;;;;;;;;2.00;1.00;;;;;16.14;61.31;101252.53;6253545;22;45181;-82
2021/09/29 02:53:07;;;;;;;;;0.67;0.67;;;;;16.20;61.24;101255.97;6251669;22;45271;-81
2021/09/29 02:55:33;;;;;;;;;1.00;0.00;;;;;16.19;61.12;101256.84;6281053;22;45145;-82
2021/09/29 02:57:58;;;;;;;;;1.00;0.00;;;;;16.20;61.68;101263.94;6279012;22;45141;-83
2021/09/29 03:00:24;;;;;;;;;0.75;0.75;;;;;16.23;62.27;101284.28;6252811;22;45103;-83
2021/09/29 03:02:49;;;;;;;;;2.00;1.00;;;;;16.18;62.14;101262.22;6251741;22;45445;-82
2021/09/29 03:05:15;;;;;;;;;1.33;1.33;;;;;16.34;61.97;101278.75;6251493;22;45383;-82
2021/09/29 03:07:40;;;;;;;;;0.00;0.00;;;;;16.22;61.82;101258.59;6251536;22;46825;-82
2021/09/29 03:10:06;;;;;;;;;0.67;0.67;;;;;16.32;62.55;101276.97;6251645;22;45355;-83
2021/09/29 03:12:31;;;;;;;;;0.00;0.00;;;;;16.26;62.01;101257.63;6279592;22;45366;-82
2021/09/29 03:14:57;;;;;;;;;2.67;2.00;;;;;16.37;61.98;101266.28;6251520;22;45537;-82
2021/09/29 03:17:23;;;;;;;;;1.00;1.00;;;;;16.21;62.13;101239.13;6279463;22;46171;-82
2021/09/29 03:19:49;;;;;;;;;1.00;1.00;;;;;16.30;62.41;101261.97;6251558;22;45415;-82
2021/09/29 03:22:15;;;;;;;;;1.00;1.00;;;;;16.23;62.27;101261.22;6251819;22;45319;-82
2021/09/29 03:24:40;;;;;;;;;2.67;2.33;;;;;16.29;62.68;101270.84;6279699;22;45152;-82
2021/09/29 03:27:06;;;;;;;;;2.00;2.00;;;;;16.24;62.30;101262.09;6280112;22;46436;-82
2021/09/29 03:29:32;;;;;;;;;2.00;1.00;;;;;16.31;62.46;101269.94;6253218;22;45253;-82
2021/09/29 03:31:57;;;;;;;;;3.33;2.00;;;;;16.29;62.21;101270.84;6252233;22;45210;-82
2021/09/29 03:34:23;;;;;;;;;0.00;0.00;;;;;16.24;62.72;101259.44;6279804;22;45154;-82
2021/09/29 03:36:49;;;;;;;;;0.00;0.00;;;;;16.30;62.37;101273.50;6278461;22;46287;-82
2021/09/29 03:39:14;;;;;;;;;2.00;1.00;;;;;16.31;63.16;101275.25;6252331;22;45243;-82
2021/09/29 03:41:40;;;;;;;;;0.00;0.00;;;;;16.32;62.78;101290.25;6250322;22;45202;-81
2021/09/29 03:44:05;;;;;;;;;1.00;1.00;;;;;16.30;62.88;101281.47;6279125;22;45316;-82
2021/09/29 03:46:31;;;;;;;;;1.00;1.00;;;;;16.43;63.41;101297.16;6279912;22;45993;-81
2021/09/29 03:48:57;;;;;;;;;1.67;0.00;;;;;16.35;63.89;101284.03;6278753;22;45378;-81
2021/09/29 03:51:23;;;;;;;;;2.00;1.00;;;;;16.25;63.55;101267.41;6279544;22;45357;-82
2021/09/29 03:54:17;;;;;;;;;0.33;0.33;;;;;16.37;64.63;101298.16;6251241;22;45351;-82
2021/09/29 03:56:43;;;;;;;;;1.00;1.00;;;;;16.20;64.51;101277.22;6264811;22;45395;-82
2021/09/29 03:59:08;;;;;;;;;1.00;1.00;;;;;16.18;64.76;101272.84;6251288;22;45484;-82
2021/09/29 04:01:34;;;;;;;;;1.00;1.00;;;;;16.21;64.70;101284.28;6252902;22;45444;-82
2021/09/29 04:03:59;;;;;;;;;1.00;0.00;;;;;16.27;64.72;101297.44;6253764;22;45729;-83
2021/09/29 04:06:25;;;;;;;;;1.00;1.00;;;;;16.16;65.01;101274.66;6254710;22;47072;-84
2021/09/29 04:08:50;;;;;;;;;3.00;1.00;;;;;16.28;65.01;101287.72;6255469;22;45558;-81
2021/09/29 04:11:16;;;;;;;;;2.33;1.33;;;;;16.10;65.12;101268.53;6286032;22;45118;-81
2021/09/29 04:13:42;;;;;;;;;2.00;2.00;;;;;16.26;64.94;101301.03;6258090;22;45183;-82
2021/09/29 04:16:07;;;;;;;;;2.00;2.00;;;;;16.19;64.97;101286.09;6285658;22;46079;-83
2021/09/29 04:18:33;;;;;;;;;0.00;0.00;;;;;16.27;64.98;101302.75;6285389;22;45137;-81
2021/09/29 04:20:59;;;;;;;;;1.50;1.50;;;;;16.16;64.95;101279.97;6285791;22;45090;-82
2021/09/29 04:23:24;;;;;;;;;1.33;1.33;;;;;16.09;65.22;101261.47;6258230;22;44817;-81
2021/09/29 04:25:52;;;;;;;;;0.00;0.00;;;;;16.25;65.01;101293.06;6257232;22;47541;-82
2021/09/29 04:28:18;;;;;;;;;2.00;2.00;;;;;16.12;65.25;101272.94;6256938;22;45734;-82
2021/09/29 04:30:44;;;;;;;;;2.00;2.00;;;;;16.20;64.93;101298.47;6254205;22;45350;-82
2021/09/29 04:33:09;;;;;;;;;2.33;1.33;;;;;16.17;64.92;101289.66;6280565;22;45172;-82
2021/09/29 04:35:38;;;;;;;;;1.33;0.00;;;;;16.28;64.59;101301.88;6252219;22;46858;-82
2021/09/29 04:38:03;;;;;;;;;0.00;0.00;;;;;16.21;65.24;101299.34;6252032;22;45233;-83
2021/09/29 04:40:29;;;;;;;;;1.00;1.00;;;;;16.26;64.91;101305.47;6251073;22;45221;-82
2021/09/29 04:42:54;;;;;;;;;2.00;1.33;;;;;16.29;65.07;101337.28;6277797;22;45729;-82
2021/09/29 04:45:20;;;;;;;;;1.00;0.00;;;;;16.21;65.50;101325.91;6278952;22;46181;-83
2021/09/29 04:47:46;;;;;;;;;0.00;0.00;;;;;16.23;66.14;101361.31;6252838;22;45439;-82
2021/09/29 04:50:11;;;;;;;;;0.00;0.00;;;;;16.05;66.12;101333.28;6280925;22;45345;-82
2021/09/29 04:52:36;;;;;;;;;0.00;0.00;;;;;16.12;66.22;101349.97;6282272;22;45322;-82
2021/09/29 04:55:03;;;;;;;;;0.00;0.00;;;;;15.95;65.38;101321.03;6281247;22;45353;-82
2021/09/29 04:57:29;;;;;;;;;3.00;1.33;;;;;16.01;66.22;101359.03;6279438;22;45377;-82
2021/09/29 04:59:58;;;;;;;;;0.00;0.00;;;;;16.02;65.96;101354.56;6252739;22;45378;-82
2021/09/29 05:02:23;;;;;;;;;2.00;1.33;;;;;15.80;64.80;101341.66;6251731;22;45185;-82
2021/09/29 05:04:49;;;;;;;;;0.33;0.33;;;;;15.91;64.82;101370.69;6253084;22;45980;-82
2021/09/29 05:07:17;;;;;;;;;0.00;0.00;;;;;15.79;64.20;101357.59;6252997;22;45113;-81
2021/09/29 05:09:46;;;;;;;;;0.00;0.00;;;;;15.83;64.56;101375.25;6281160;22;45425;-81
2021/09/29 05:12:21;;;;;;;;;0.33;0.00;;;;;15.66;64.13;101351.53;6246772;22;45431;-82
2021/09/29 05:14:46;;;;;;;;;1.00;1.00;;;;;15.76;64.18;101376.22;6249131;22;45249;-82
2021/09/29 05:17:12;;;;;;;;;0.00;0.00;;;;;15.65;63.95;101365.72;6221033;22;45249;-82
2021/09/29 05:19:37;;;;;;;;;0.00;0.00;;;;;15.61;63.69;101356.94;6250919;22;45243;-82
2021/09/29 05:22:06;;;;;;;;;0.00;0.00;;;;;15.49;63.76;101358.88;6249411;22;45153;-81
2021/09/29 05:24:31;;;;;;;;;0.00;0.00;;;;;15.55;63.89;101374.72;6221864;22;47136;-81
2021/09/29 05:26:56;;;;;;;;;1.00;1.00;;;;;15.46;63.97;101364.25;6220841;22;45402;-82
2021/09/29 05:29:22;;;;;;;;;1.00;1.00;;;;;15.42;64.01;101379.31;6250182;22;45253;-82
2021/09/29 05:31:48;;;;;;;;;0.00;0.00;;;;;15.51;64.28;101399.56;6227487;22;45387;-82
2021/09/29 05:34:13;;;;;;;;;0.00;0.00;;;;;15.44;64.42;101402.28;6252581;22;47759;-81
2021/09/29 05:36:41;;;;;;;;;0.00;0.00;;;;;15.38;64.68;101394.41;6249064;22;45308;-82
2021/09/29 05:39:08;;;;;;;;;0.00;0.00;;;;;15.39;64.29;101408.53;6251437;22;45083;-82
2021/09/29 05:41:33;;;;;;;;;1.00;0.00;;;;;15.26;64.64;101396.34;6221553;22;45343;-81
2021/09/29 05:43:59;;;;;;;;;0.00;0.00;;;;;15.26;64.79;101402.50;6221963;22;48194;-82
2021/09/29 05:46:29;;;;;;;;;1.00;1.00;;;;;15.23;64.75;101410.50;6247517;22;45187;-82
2021/09/29 05:48:55;;;;;;;;;1.00;1.00;;;;;15.36;64.94;101428.03;6256705;22;45205;-81
2021/09/29 05:51:20;;;;;;;;;0.00;0.00;;;;;15.27;64.35;101428.16;6254128;22;45082;-82
2021/09/29 05:53:46;;;;;;;;;0.00;0.00;;;;;15.18;64.78;101422.94;6225896;22;46642;-83
2021/09/29 05:56:16;;;;;;;;;1.00;1.00;;;;;15.25;64.84;101439.69;6250096;22;45145;-82
2021/09/29 05:58:44;;;;;;;;;0.00;0.00;;;;;15.30;64.47;101453.78;6248648;22;45282;-83
2021/09/29 06:01:10;;;;;;;;;0.00;0.00;;;;;15.23;64.72;101442.34;6247097;22;45448;-82
2021/09/29 06:03:35;;;;;;;;;0.33;0.33;;;;;15.24;64.56;101453.84;6248048;22;45260;-80
2021/09/29 06:06:01;;;;;;;;;0.33;0.00;;;;;15.15;64.99;101457.47;6248874;22;45249;-80
2021/09/29 06:08:26;;;;;;;;;2.00;2.00;;;;;15.14;65.11;101459.25;6248529;22;45241;-80
2021/09/29 06:10:52;;;;;;;;;0.00;0.00;;;;;15.27;65.09;101480.34;6246611;22;45483;-80
2021/09/29 06:13:17;;;;;;;;;0.00;0.00;;;;;15.27;65.06;101498.91;6248183;22;46601;-80
2021/09/29 06:15:45;;;;;;;;;0.00;0.00;;;;;15.28;64.83;101500.66;6221370;22;45204;-80
2021/09/29 06:18:14;;;;;;;;;0.00;0.00;;;;;15.25;65.37;101495.41;6220579;22;45391;-80
2021/09/29 06:20:49;;;;;;;;;2.00;2.00;;;;;15.18;65.14;101486.59;6247766;22;45384;-81
2021/09/29 06:23:16;;;;;;;;;2.00;2.00;;;;;15.23;65.18;101495.41;6220611;22;46074;-83
2021/09/29 06:25:42;;;;;;;;;0.00;0.00;;;;;15.19;64.95;101497.22;6220194;22;45198;-83
2021/09/29 06:28:08;;;;;;;;;1.67;1.67;;;;;15.22;65.28;101514.88;6247981;22;45176;-80
2021/09/29 06:30:34;;;;;;;;;0.00;0.00;;;;;15.15;65.15;101505.22;6221165;22;45438;-80
2021/09/29 06:33:00;;;;;;;;;0.00;0.00;;;;;15.32;65.14;101531.59;6220806;22;45491;-80
2021/09/29 06:35:28;;;;;;;;;0.00;0.00;;;;;15.33;65.05;101546.59;6245831;22;45323;-81
2021/09/29 06:37:55;;;;;;;;;0.00;0.00;;;;;15.34;65.46;101548.34;6248717;22;45327;-81
2021/09/29 06:40:20;;;;;;;;;2.00;2.00;;;;;15.32;65.29;101544.84;6247564;22;45217;-82
2021/09/29 06:42:46;;;;;;;;;0.00;0.00;;;;;15.38;64.72;101558.03;6245652;22;45950;-80
2021/09/29 06:45:13;;;;;;;;;2.00;2.00;;;;;15.34;64.84;101554.56;6245804;22;45244;-83
2021/09/29 06:47:39;;;;;;;;;4.00;2.00;;;;;15.32;64.77;101556.34;6220435;22;45208;-81
2021/09/29 06:50:09;;;;;;;;;0.00;0.00;;;;;15.31;64.64;101557.22;6245901;22;45515;-81
2021/09/29 06:52:35;;;;;;;;;0.00;0.00;;;;;15.31;64.88;101559.00;6248566;22;45359;-80
2021/09/29 06:55:01;;;;;;;;;0.67;0.00;;;;;15.36;64.41;101560.69;6247366;22;45590;-82
2021/09/29 06:57:27;;;;;;;;;0.00;0.00;;;;;15.47;64.66;101584.47;6247415;22;45157;-81
2021/09/29 06:59:52;;;;;;;;;1.00;1.00;;;;;15.46;64.06;101581.84;6220204;22;45399;-82
2021/09/29 07:02:18;;;;;;;;;2.00;1.33;;;;;15.37;64.15;101575.75;6248040;22;45434;-81
2021/09/29 07:04:43;;;;;;;;;0.00;0.00;;;;;15.35;63.51;101560.72;6247975;22;45250;-83
2021/09/29 07:07:09;;;;;;;;;1.67;1.00;;;;;15.34;63.54;101570.47;6248014;22;45431;-83
2021/09/29 07:09:34;;;;;;;;;0.25;0.00;;;;;15.44;63.30;101588.03;6220948;22;45312;-83
2021/09/29 07:12:00;;;;;;;;;2.00;2.00;;;;;15.38;63.50;101579.28;6245252;22;45840;-82
2021/09/29 07:14:25;;;;;;;;;0.33;0.00;;;;;15.35;63.71;101568.69;6245685;22;45407;-82
2021/09/29 07:16:54;;;;;;;;;3.00;1.00;;;;;15.49;63.78;101593.31;6247947;22;45389;-83
2021/09/29 07:19:19;;;;;;;;;0.00;0.00;;;;;15.41;64.04;101580.09;6246317;22;45734;-83
2021/09/29 07:21:45;;;;;;;;;1.00;0.33;;;;;15.51;64.16;101610.09;6217452;22;47337;-82
2021/09/29 07:24:13;;;;;;;;;0.00;0.00;;;;;15.50;64.03;101616.28;6218469;22;45383;-82
2021/09/29 07:26:38;;;;;;;;;2.00;0.00;;;;;15.40;64.31;101601.38;6220439;22;45178;-81
2021/09/29 07:29:12;;;;;;;;;0.00;0.00;;;;;15.47;64.27;101621.63;6245164;22;45431;-83
2021/09/29 07:31:38;;;;;;;;;0.00;0.00;;;;;15.44;64.24;101616.34;6248155;22;45545;-82
2021/09/29 07:34:06;;;;;;;;;1.67;0.67;;;;;15.41;64.02;101614.59;6221673;22;45212;-82
2021/09/29 07:36:32;;;;;;;;;0.00;0.00;;;;;15.45;64.22;101620.78;6247278;22;45323;-82
2021/09/29 07:39:02;;;;;;;;;1.00;1.00;;;;;15.47;64.02;101621.63;6219529;22;45310;-82
2021/09/29 07:41:27;;;;;;;;;1.00;0.67;;;;;15.36;64.15;101599.63;6218726;22;47027;-82
2021/09/29 07:55:08;;;;;;;;;1.75;1.75;;;;;15.55;64.22;101645.44;6010398;23;45604;-81
2021/09/29 07:57:54;;;;;;;;;1.00;1.00;;;;;15.58;64.03;101667.53;6035188;23;45341;-81
2021/09/29 08:03:53;;;;;;;;;;;;;;;;;;;;;
2021/09/29 08:07:19;;;;;;;;;0.00;0.00;;;;;15.39;63.26;101640.25;6065748;23;75493;-85
2021/09/29 08:17:13;;;;;;;;;1.00;1.00;;;;;15.50;62.53;101649.91;5902451;23;45280;-85
2021/09/29 08:19:48;;;;;;;;;1.00;1.00;;;;;15.62;62.06;101676.34;5924916;24;46285;-83
2021/09/29 08:22:45;;;;;;;;;0.00;0.00;;;;;15.54;61.62;101664.91;5968418;23;45232;-84
2021/09/29 08:28:18;;;;;;;;;1.67;1.67;;;;;15.61;60.25;101682.53;6247824;22;45233;-82
2021/09/29 08:33:32;;;;;;;;;1.33;0.00;;;;;15.63;60.20;101680.75;6247542;22;45154;-83
2021/09/29 08:36:48;;;;;;;;;0.00;0.00;;;;;15.75;59.91;101712.53;6245997;22;45221;-82
2021/09/29 08:38:59;;;;;;;;;1.00;1.00;;;;;15.88;59.91;101722.13;6230081;22;45295;-82
2021/09/29 08:41:59;;;;;;;;;;;;;;;;;;;;;
2021/09/29 08:44:49;;;;;;;;;;;;;;;;;;;;;
2021/09/29 09:17:05;;;;;;;;;2.00;1.00;;;;;16.66;55.23;101767.34;6072876;23;45457;-84
2021/09/29 09:19:31;;;;;;;;;0.00;0.00;;;;;16.64;55.17;101747.84;6126248;22;47753;-84
2021/09/29 09:22:09;;;;;;;;;0.00;0.00;;;;;16.79;54.65;101766.31;6215606;22;45416;-86
2021/09/29 09:32:17;;;;;;;;;;;;;;;;;;;;;
2021/09/29 09:35:50;;;;;;;;;1.33;1.33;;;;;17.22;53.45;101759.53;6092389;23;71185;-85
2021/09/29 09:38:24;;;;;;;;;1.00;1.00;;;;;17.26;52.47;101767.41;6043508;23;45262;-82
2021/09/29 09:44:23;;;;;;;;;3.00;0.00;;;;;17.06;51.40;101772.16;6064982;23;45416;-83
2021/09/29 09:47:19;;;;;;;;;1.00;1.00;;;;;17.18;51.31;101810.09;6064527;23;45381;-82
2021/09/29 09:49:51;;;;;;;;;2.00;2.00;;;;;17.10;50.78;101782.72;6064677;23;45455;-83
2021/09/29 09:52:47;;;;;;;;;1.67;1.67;;;;;17.27;51.34;101798.47;6081863;23;45485;-81
2021/09/29 09:55:30;;;;;;;;;2.00;1.00;;;;;17.29;51.30;101779.78;6187695;22;46399;-81
2021/09/29 09:58:03;;;;;;;;;1.67;1.00;;;;;17.47;50.65;101782.19;6195100;22;46571;-81
2021/09/29 10:00:39;;;;;;;;;0.33;0.33;;;;;17.78;50.42;101805.66;6214329;22;45282;-82
2021/09/29 10:03:08;;;;;;;;;2.00;2.00;;;;;17.78;49.80;101787.03;6217362;22;45562;-82
2021/09/29 10:05:49;;;;;;;;;3.00;3.00;;;;;17.97;50.25;101809.81;6188453;22;47854;-82
2021/09/29 10:08:16;;;;;;;;;2.00;1.00;;;;;17.97;49.41;101809.81;6189872;22;45140;-81
2021/09/29 10:31:37;;;;;;;;;2.00;2.00;;;;;17.75;49.94;101894.50;6065954;23;45249;-81
2021/09/29 17:03:48;;;;;;;;;1.00;1.00;;;;;19.50;35.48;102226.97;6152171;22;45879;-86
2021/09/29 17:16:34;;;;;;;;;;;;;;;;;;;;;
2021/09/29 17:19:18;;;;;;;;;3.33;0.00;;;;;18.37;37.94;102249.03;6070093;23;66417;-88
2021/09/29 19:47:55;;;;;;;;;1.25;1.25;;;;;15.00;48.54;102426.50;6218381;22;47026;-87
2021/09/29 22:14:06;;;;;;;;;0.00;0.00;;;;;13.79;52.75;102505.88;6100742;23;45540;-87
2021/09/29 22:55:20;;;;;;;;;1.75;1.75;;;;;13.51;53.49;102523.16;6223320;22;45332;-86
2021/09/29 23:05:35;;;;;;;;;0.75;0.25;;;;;13.39;54.31;102531.84;6184544;23;45479;-87
2021/09/29 23:08:18;;;;;;;;;1.25;0.25;;;;;13.44;54.09;102538.09;6184206;23;47063;-86
2021/09/29 23:22:29;;;;;;;;;1.50;1.00;;;;;13.24;54.41;102516.59;6216763;22;45469;-86
2021/09/29 23:32:32;;;;;;;;;2.75;1.00;;;;;13.35;54.54;102547.66;6217139;22;45401;-84
2021/09/29 23:34:59;;;;;;;;;1.25;1.00;;;;;13.34;54.48;102552.06;6194716;22;45349;-86
2021/09/29 23:37:31;;;;;;;;;2.00;2.00;;;;;13.24;54.82;102534.25;6232913;22;45518;-87
2021/09/29 23:39:56;;;;;;;;;1.00;1.00;;;;;13.32;54.50;102553.78;6223852;22;45329;-85
